createdAt,value
2018-06-30T00:00:08.575Z,0
2018-06-30T00:00:34.151Z,0
2018-06-30T00:00:59.695Z,0
2018-06-30T00:01:25.262Z,0
2018-06-30T00:01:50.855Z,0
2018-06-30T00:02:16.396Z,0
2018-06-30T00:02:41.975Z,0
2018-06-30T00:03:07.563Z,0
2018-06-30T00:03:33.155Z,0
2018-06-30T00:03:58.714Z,0
2018-06-30T00:04:24.292Z,0
2018-06-30T00:04:49.880Z,0
2018-06-30T00:05:15.455Z,0
2018-06-30T00:05:41.009Z,0
2018-06-30T00:06:06.578Z,0
2018-06-30T00:06:32.149Z,0
2018-06-30T00:06:57.721Z,0
2018-06-30T00:07:23.282Z,0
2018-06-30T00:07:48.847Z,0
2018-06-30T00:08:14.415Z,0
2018-06-30T00:08:39.990Z,0
2018-06-30T00:09:48.779Z,0
2018-06-30T00:10:52.404Z,0
2018-06-30T00:11:17.982Z,0
2018-06-30T00:11:43.552Z,0
2018-06-30T00:12:09.107Z,0
2018-06-30T00:12:34.659Z,0
2018-06-30T00:13:00.217Z,0
2018-06-30T00:13:25.771Z,0
2018-06-30T00:13:51.346Z,0
2018-06-30T00:14:16.909Z,0
2018-06-30T00:14:42.460Z,0
2018-06-30T00:15:08.048Z,0
2018-06-30T00:15:33.610Z,0
2018-06-30T00:15:59.163Z,0
2018-06-30T00:16:24.735Z,0
2018-06-30T00:16:50.310Z,0
2018-06-30T00:17:15.886Z,0
2018-06-30T00:17:41.462Z,0
2018-06-30T00:18:07.039Z,0
2018-06-30T00:18:32.611Z,0
2018-06-30T00:18:58.177Z,0
2018-06-30T00:19:23.764Z,0
2018-06-30T00:19:49.346Z,0
2018-06-30T00:20:14.917Z,0
2018-06-30T00:20:40.483Z,0
2018-06-30T00:21:06.045Z,0
2018-06-30T00:21:31.623Z,0
2018-06-30T00:21:57.180Z,0
2018-06-30T00:22:22.731Z,0
2018-06-30T00:22:48.293Z,0
2018-06-30T00:23:13.867Z,0
2018-06-30T00:23:39.421Z,0
2018-06-30T00:24:04.993Z,0
2018-06-30T00:24:30.608Z,0
2018-06-30T00:24:56.173Z,0
2018-06-30T00:25:21.730Z,0
2018-06-30T00:25:47.302Z,0
2018-06-30T00:26:12.878Z,0
2018-06-30T00:26:38.449Z,0
2018-06-30T00:27:04.019Z,0
2018-06-30T00:27:29.586Z,0
2018-06-30T00:27:55.158Z,0
2018-06-30T00:28:20.731Z,0
2018-06-30T00:28:46.316Z,0
2018-06-30T00:29:11.898Z,0
2018-06-30T00:29:37.470Z,0
2018-06-30T00:30:03.045Z,0
2018-06-30T00:30:28.617Z,0
2018-06-30T00:30:54.169Z,0
2018-06-30T00:31:19.739Z,0
2018-06-30T00:31:45.310Z,0
2018-06-30T00:32:10.877Z,0
2018-06-30T00:32:36.442Z,0
2018-06-30T00:33:02.029Z,0
2018-06-30T00:33:27.623Z,0
2018-06-30T00:33:53.186Z,0
2018-06-30T00:34:18.743Z,0
2018-06-30T00:34:44.321Z,0
2018-06-30T00:35:09.866Z,0
2018-06-30T00:35:35.448Z,0
2018-06-30T00:36:01.009Z,0
2018-06-30T00:36:26.584Z,0
2018-06-30T00:36:52.155Z,0
2018-06-30T00:37:17.727Z,0
2018-06-30T00:37:43.303Z,0
2018-06-30T00:38:08.863Z,0
2018-06-30T00:38:34.444Z,0
2018-06-30T00:39:00.028Z,0
2018-06-30T00:39:25.597Z,0
2018-06-30T00:39:51.164Z,0
2018-06-30T00:40:16.739Z,0
2018-06-30T00:40:42.305Z,0
2018-06-30T00:41:07.885Z,0
2018-06-30T00:41:33.461Z,0
2018-06-30T00:41:59.029Z,0
2018-06-30T00:42:24.623Z,0
2018-06-30T00:42:50.182Z,0
2018-06-30T00:43:15.762Z,0
2018-06-30T00:43:41.311Z,0
2018-06-30T00:44:06.889Z,0
2018-06-30T00:44:32.451Z,0
2018-06-30T00:44:58.020Z,0
2018-06-30T00:45:23.604Z,0
2018-06-30T00:45:49.165Z,0
2018-06-30T00:46:14.727Z,0
2018-06-30T00:46:40.316Z,0
2018-06-30T00:47:05.909Z,0
2018-06-30T00:47:31.476Z,0
2018-06-30T00:47:57.045Z,0
2018-06-30T00:48:22.613Z,0
2018-06-30T00:48:48.168Z,0
2018-06-30T00:49:13.726Z,0
2018-06-30T00:49:39.304Z,0
2018-06-30T00:50:04.868Z,0
2018-06-30T00:50:30.423Z,0
2018-06-30T00:50:55.999Z,0
2018-06-30T00:51:21.582Z,0
2018-06-30T00:51:47.148Z,0
2018-06-30T00:52:12.706Z,0
2018-06-30T00:52:38.279Z,0
2018-06-30T00:53:03.837Z,0
2018-06-30T00:53:29.400Z,0
2018-06-30T00:53:54.975Z,0
2018-06-30T00:54:20.549Z,0
2018-06-30T00:54:46.123Z,0
2018-06-30T00:55:11.708Z,0
2018-06-30T00:55:37.268Z,0
2018-06-30T00:56:02.840Z,0
2018-06-30T00:56:28.413Z,0
2018-06-30T00:56:53.979Z,0
2018-06-30T00:57:19.532Z,0
2018-06-30T00:57:45.107Z,0
2018-06-30T00:58:10.681Z,0
2018-06-30T00:58:36.236Z,0
2018-06-30T00:59:01.803Z,0
2018-06-30T00:59:27.361Z,0
2018-06-30T00:59:52.939Z,0
2018-06-30T01:00:18.496Z,0
2018-06-30T01:00:44.091Z,0
2018-06-30T01:01:09.657Z,0
2018-06-30T01:01:35.221Z,0
2018-06-30T01:02:00.791Z,0
2018-06-30T01:02:26.355Z,0
2018-06-30T01:02:51.929Z,0
2018-06-30T01:03:17.515Z,0
2018-06-30T01:03:43.124Z,0
2018-06-30T01:04:08.713Z,0
2018-06-30T01:04:34.297Z,0
2018-06-30T01:04:59.875Z,0
2018-06-30T01:05:25.429Z,0
2018-06-30T01:05:51.004Z,0
2018-06-30T01:06:16.593Z,0
2018-06-30T01:06:42.152Z,0
2018-06-30T01:07:07.725Z,0
2018-06-30T01:07:33.287Z,0
2018-06-30T01:07:58.884Z,0
2018-06-30T01:08:24.467Z,0
2018-06-30T01:08:50.030Z,0
2018-06-30T01:09:15.594Z,0
2018-06-30T01:09:41.165Z,0
2018-06-30T01:10:06.729Z,0
2018-06-30T01:10:32.291Z,0
2018-06-30T01:10:57.853Z,0
2018-06-30T01:11:23.424Z,0
2018-06-30T01:11:48.984Z,0
2018-06-30T01:12:14.534Z,0
2018-06-30T01:12:40.096Z,0
2018-06-30T01:13:05.652Z,0
2018-06-30T01:13:31.235Z,0
2018-06-30T01:13:56.788Z,0
2018-06-30T01:14:22.363Z,0
2018-06-30T01:14:47.939Z,0
2018-06-30T01:15:13.520Z,0
2018-06-30T01:15:39.091Z,0
2018-06-30T01:16:04.643Z,0
2018-06-30T01:16:30.201Z,0
2018-06-30T01:16:55.789Z,0
2018-06-30T01:17:21.376Z,0
2018-06-30T01:17:46.933Z,0
2018-06-30T01:18:12.520Z,0
2018-06-30T01:18:38.093Z,0
2018-06-30T01:19:03.667Z,0
2018-06-30T01:19:29.212Z,0
2018-06-30T01:19:54.787Z,0
2018-06-30T01:20:20.352Z,0
2018-06-30T01:20:45.917Z,0
2018-06-30T01:21:11.497Z,0
2018-06-30T01:21:37.091Z,0
2018-06-30T01:22:02.652Z,0
2018-06-30T01:22:28.224Z,0
2018-06-30T01:22:53.803Z,0
2018-06-30T01:23:19.363Z,0
2018-06-30T01:23:44.925Z,0
2018-06-30T01:24:10.493Z,0
2018-06-30T01:24:36.065Z,0
2018-06-30T01:25:01.606Z,0
2018-06-30T01:25:27.168Z,0
2018-06-30T01:25:52.741Z,0
2018-06-30T01:26:18.295Z,0
2018-06-30T01:26:43.866Z,0
2018-06-30T01:27:09.445Z,0
2018-06-30T01:27:35.025Z,0
2018-06-30T01:28:00.587Z,0
2018-06-30T01:28:26.167Z,0
2018-06-30T01:28:51.729Z,0
2018-06-30T01:29:17.296Z,0
2018-06-30T01:29:42.886Z,0
2018-06-30T01:30:08.481Z,0
2018-06-30T01:30:34.046Z,0
2018-06-30T01:30:59.619Z,0
2018-06-30T01:31:25.177Z,0
2018-06-30T01:31:50.760Z,0
2018-06-30T01:32:16.332Z,0
2018-06-30T01:32:41.900Z,0
2018-06-30T01:33:07.478Z,0
2018-06-30T01:33:33.053Z,0
2018-06-30T01:33:58.638Z,0
2018-06-30T01:34:24.204Z,0
2018-06-30T01:34:49.750Z,0
2018-06-30T01:35:15.316Z,0
2018-06-30T01:35:40.893Z,0
2018-06-30T01:36:06.460Z,0
2018-06-30T01:36:32.029Z,0
2018-06-30T01:36:57.587Z,0
2018-06-30T01:37:23.155Z,0
2018-06-30T01:37:48.724Z,0
2018-06-30T01:38:14.292Z,0
2018-06-30T01:38:39.853Z,0
2018-06-30T01:39:05.431Z,0
2018-06-30T01:39:30.994Z,0
2018-06-30T01:39:56.571Z,0
2018-06-30T01:40:22.150Z,0
2018-06-30T01:40:47.739Z,0
2018-06-30T01:41:13.312Z,0
2018-06-30T01:41:38.879Z,0
2018-06-30T01:42:04.468Z,0
2018-06-30T01:42:30.041Z,0
2018-06-30T01:42:55.600Z,0
2018-06-30T01:43:21.168Z,0
2018-06-30T01:43:46.757Z,0
2018-06-30T01:44:12.321Z,0
2018-06-30T01:44:37.883Z,0
2018-06-30T01:45:03.451Z,0
2018-06-30T01:45:29.030Z,0
2018-06-30T01:45:54.582Z,0
2018-06-30T01:46:20.142Z,0
2018-06-30T01:46:45.705Z,0
2018-06-30T01:47:11.293Z,0
2018-06-30T01:47:36.861Z,0
2018-06-30T01:48:02.435Z,0
2018-06-30T01:48:28.029Z,0
2018-06-30T01:48:53.594Z,0
2018-06-30T01:49:19.168Z,0
2018-06-30T01:49:44.742Z,0
2018-06-30T01:50:10.287Z,0
2018-06-30T01:50:35.860Z,0
2018-06-30T01:51:01.416Z,0
2018-06-30T01:51:26.987Z,0
2018-06-30T01:51:52.566Z,0
2018-06-30T01:52:18.138Z,0
2018-06-30T01:52:43.705Z,0
2018-06-30T01:53:09.276Z,0
2018-06-30T01:53:34.832Z,0
2018-06-30T01:54:00.392Z,0
2018-06-30T01:54:25.975Z,0
2018-06-30T01:54:51.535Z,0
2018-06-30T01:55:17.089Z,0
2018-06-30T01:55:42.658Z,0
2018-06-30T01:56:08.232Z,0
2018-06-30T01:56:33.803Z,0
2018-06-30T01:56:59.365Z,0
2018-06-30T01:57:24.938Z,0
2018-06-30T01:57:50.504Z,0
2018-06-30T01:58:16.083Z,0
2018-06-30T01:58:41.647Z,0
2018-06-30T01:59:07.230Z,0
2018-06-30T01:59:32.819Z,0
2018-06-30T01:59:58.388Z,0
2018-06-30T02:00:23.956Z,0
2018-06-30T02:00:49.524Z,0
2018-06-30T02:01:15.083Z,0
2018-06-30T02:01:40.660Z,0
2018-06-30T02:02:06.223Z,0
2018-06-30T02:02:31.787Z,0
2018-06-30T02:02:57.352Z,0
2018-06-30T02:03:22.925Z,0
2018-06-30T02:03:48.496Z,0
2018-06-30T02:04:14.057Z,0
2018-06-30T02:04:39.629Z,0
2018-06-30T02:05:05.186Z,0
2018-06-30T02:05:30.747Z,0
2018-06-30T02:05:56.340Z,0
2018-06-30T02:06:21.918Z,0
2018-06-30T02:06:47.477Z,0
2018-06-30T02:07:13.052Z,0
2018-06-30T02:07:38.620Z,0
2018-06-30T02:08:04.182Z,0
2018-06-30T02:08:29.761Z,0
2018-06-30T02:08:55.320Z,0
2018-06-30T02:09:20.898Z,0
2018-06-30T02:09:46.466Z,0
2018-06-30T02:10:12.045Z,0
2018-06-30T02:10:37.642Z,0
2018-06-30T02:11:03.208Z,0
2018-06-30T02:11:28.814Z,0
2018-06-30T02:11:54.367Z,0
2018-06-30T02:12:19.935Z,0
2018-06-30T02:12:45.482Z,0
2018-06-30T02:13:11.041Z,0
2018-06-30T02:13:36.613Z,0
2018-06-30T02:14:02.185Z,0
2018-06-30T02:14:27.752Z,0
2018-06-30T02:14:53.317Z,0
2018-06-30T02:15:18.884Z,0
2018-06-30T02:15:44.449Z,0
2018-06-30T02:16:10.023Z,0
2018-06-30T02:16:35.586Z,0
2018-06-30T02:17:01.152Z,0
2018-06-30T02:17:26.720Z,0
2018-06-30T02:17:52.286Z,0
2018-06-30T02:18:17.858Z,0
2018-06-30T02:18:43.416Z,0
2018-06-30T02:19:09.001Z,0
2018-06-30T02:19:34.562Z,0
2018-06-30T02:20:00.121Z,0
2018-06-30T02:20:25.680Z,0
2018-06-30T02:20:51.239Z,0
2018-06-30T02:21:16.803Z,0
2018-06-30T02:21:42.437Z,0
2018-06-30T02:22:07.936Z,0
2018-06-30T02:22:33.498Z,0
2018-06-30T02:22:59.045Z,0
2018-06-30T02:23:24.606Z,0
2018-06-30T02:23:50.173Z,0
2018-06-30T02:24:15.733Z,0
2018-06-30T02:24:41.308Z,0
2018-06-30T02:25:06.875Z,0
2018-06-30T02:25:32.450Z,0
2018-06-30T02:25:58.012Z,0
2018-06-30T02:26:23.590Z,0
2018-06-30T02:26:49.158Z,0
2018-06-30T02:27:14.727Z,0
2018-06-30T02:27:40.302Z,0
2018-06-30T02:28:05.872Z,0
2018-06-30T02:28:31.436Z,0
2018-06-30T02:28:57.013Z,0
2018-06-30T02:29:22.603Z,0
2018-06-30T02:29:48.142Z,0
2018-06-30T02:30:13.723Z,0
2018-06-30T02:30:39.295Z,0
2018-06-30T02:31:04.867Z,0
2018-06-30T02:31:30.437Z,0
2018-06-30T02:31:55.995Z,0
2018-06-30T02:32:21.578Z,0
2018-06-30T02:32:47.160Z,0
2018-06-30T02:33:12.734Z,0
2018-06-30T02:33:38.294Z,0
2018-06-30T02:34:03.865Z,0
2018-06-30T02:34:29.430Z,0
2018-06-30T02:34:55.033Z,0
2018-06-30T02:35:20.613Z,0
2018-06-30T02:35:46.184Z,0
2018-06-30T02:36:11.747Z,0
2018-06-30T02:36:37.315Z,0
2018-06-30T02:37:02.873Z,0
2018-06-30T02:37:28.447Z,0
2018-06-30T02:37:54.020Z,0
2018-06-30T02:38:19.581Z,0
2018-06-30T02:38:45.160Z,0
2018-06-30T02:39:10.744Z,0
2018-06-30T02:39:36.278Z,0
2018-06-30T02:40:01.849Z,0
2018-06-30T02:40:27.399Z,0
2018-06-30T02:40:52.985Z,0
2018-06-30T02:41:18.531Z,0
2018-06-30T02:41:44.114Z,0
2018-06-30T02:42:09.679Z,0
2018-06-30T02:42:35.241Z,0
2018-06-30T02:43:00.797Z,0
2018-06-30T02:43:26.376Z,0
2018-06-30T02:43:51.960Z,0
2018-06-30T02:44:17.546Z,0
2018-06-30T02:44:43.111Z,0
2018-06-30T02:45:08.668Z,0
2018-06-30T02:45:34.215Z,0
2018-06-30T02:45:59.844Z,0
2018-06-30T02:46:25.341Z,0
2018-06-30T02:46:50.890Z,0
2018-06-30T02:47:16.466Z,0
2018-06-30T02:47:42.035Z,0
2018-06-30T02:48:07.590Z,0
2018-06-30T02:48:33.150Z,0
2018-06-30T02:48:58.731Z,0
2018-06-30T02:49:24.317Z,0
2018-06-30T02:49:49.874Z,0
2018-06-30T02:50:15.464Z,0
2018-06-30T02:50:41.033Z,0
2018-06-30T02:51:06.603Z,0
2018-06-30T02:51:32.174Z,0
2018-06-30T02:51:57.773Z,0
2018-06-30T02:52:23.314Z,0
2018-06-30T02:52:48.880Z,0
2018-06-30T02:53:14.438Z,0
2018-06-30T02:53:40.019Z,0
2018-06-30T02:54:05.575Z,0
2018-06-30T02:54:31.154Z,0
2018-06-30T02:54:56.736Z,0
2018-06-30T02:55:22.293Z,0
2018-06-30T02:55:47.859Z,0
2018-06-30T02:56:13.416Z,0
2018-06-30T02:56:38.974Z,0
2018-06-30T02:57:04.565Z,0
2018-06-30T02:57:30.147Z,0
2018-06-30T02:57:55.726Z,0
2018-06-30T02:58:21.288Z,0
2018-06-30T02:58:46.854Z,0
2018-06-30T02:59:12.430Z,0
2018-06-30T02:59:37.988Z,0
2018-06-30T03:00:03.578Z,0
2018-06-30T03:00:29.153Z,0
2018-06-30T03:00:54.704Z,0
2018-06-30T03:01:20.276Z,0
2018-06-30T03:01:45.854Z,0
2018-06-30T03:02:11.456Z,4
2018-06-30T03:02:37.004Z,4
2018-06-30T03:03:02.573Z,4
2018-06-30T03:03:28.162Z,4
2018-06-30T03:03:53.725Z,4
2018-06-30T03:04:19.287Z,4
2018-06-30T03:04:44.890Z,4
2018-06-30T03:05:10.469Z,4
2018-06-30T03:05:36.040Z,4
2018-06-30T03:06:01.600Z,4
2018-06-30T03:06:27.174Z,4
2018-06-30T03:06:52.756Z,4
2018-06-30T03:07:18.322Z,4
2018-06-30T03:07:43.899Z,4
2018-06-30T03:08:09.485Z,4
2018-06-30T03:08:35.053Z,4
2018-06-30T03:09:00.597Z,4
2018-06-30T03:09:26.159Z,0
2018-06-30T03:09:51.742Z,0
2018-06-30T03:10:17.307Z,0
2018-06-30T03:10:42.855Z,0
2018-06-30T03:11:08.430Z,0
2018-06-30T03:11:33.992Z,0
2018-06-30T03:11:59.546Z,0
2018-06-30T03:12:25.082Z,0
2018-06-30T03:12:50.660Z,0
2018-06-30T03:13:16.223Z,0
2018-06-30T03:13:41.784Z,0
2018-06-30T03:14:07.336Z,0
2018-06-30T03:14:32.897Z,0
2018-06-30T03:14:58.459Z,0
2018-06-30T03:15:24.034Z,4
2018-06-30T03:15:49.632Z,4
2018-06-30T03:16:15.174Z,4
2018-06-30T03:16:40.757Z,4
2018-06-30T03:17:06.331Z,4
2018-06-30T03:17:31.888Z,4
2018-06-30T03:17:57.438Z,4
2018-06-30T03:18:22.999Z,4
2018-06-30T03:18:48.590Z,4
2018-06-30T03:19:14.159Z,4
2018-06-30T03:19:39.739Z,4
2018-06-30T03:20:05.306Z,4
2018-06-30T03:20:30.891Z,4
2018-06-30T03:20:56.449Z,4
2018-06-30T03:21:22.036Z,4
2018-06-30T03:21:47.612Z,4
2018-06-30T03:22:13.222Z,4
2018-06-30T03:22:38.788Z,4
2018-06-30T03:23:04.356Z,4
2018-06-30T03:23:29.948Z,4
2018-06-30T03:23:55.517Z,4
2018-06-30T03:24:21.099Z,4
2018-06-30T03:24:46.659Z,4
2018-06-30T03:25:12.229Z,4
2018-06-30T03:25:37.818Z,4
2018-06-30T03:26:03.431Z,4
2018-06-30T03:26:28.991Z,4
2018-06-30T03:26:54.566Z,4
2018-06-30T03:27:20.141Z,4
2018-06-30T03:27:45.726Z,4
2018-06-30T03:28:11.298Z,4
2018-06-30T03:28:36.856Z,8
2018-06-30T03:29:02.422Z,8
2018-06-30T03:29:27.984Z,8
2018-06-30T03:29:53.547Z,8
2018-06-30T03:30:19.116Z,8
2018-06-30T03:30:44.681Z,8
2018-06-30T03:31:10.258Z,8
2018-06-30T03:31:35.897Z,8
2018-06-30T03:32:01.410Z,8
2018-06-30T03:32:26.981Z,8
2018-06-30T03:32:52.552Z,4
2018-06-30T03:33:18.124Z,4
2018-06-30T03:33:43.684Z,4
2018-06-30T03:34:09.246Z,4
2018-06-30T03:34:34.822Z,4
2018-06-30T03:35:00.383Z,4
2018-06-30T03:35:25.959Z,4
2018-06-30T03:35:51.528Z,4
2018-06-30T03:36:17.114Z,4
2018-06-30T03:36:42.688Z,4
2018-06-30T03:37:08.255Z,4
2018-06-30T03:37:33.822Z,4
2018-06-30T03:37:59.379Z,4
2018-06-30T03:38:24.955Z,4
2018-06-30T03:38:50.538Z,4
2018-06-30T03:39:16.114Z,4
2018-06-30T03:39:41.672Z,4
2018-06-30T03:40:07.230Z,4
2018-06-30T03:40:32.793Z,4
2018-06-30T03:40:58.352Z,4
2018-06-30T03:41:23.922Z,4
2018-06-30T03:41:49.492Z,4
2018-06-30T03:42:15.066Z,4
2018-06-30T03:42:40.642Z,4
2018-06-30T03:43:06.200Z,4
2018-06-30T03:43:31.775Z,8
2018-06-30T03:43:57.353Z,8
2018-06-30T03:44:22.922Z,8
2018-06-30T03:44:48.496Z,8
2018-06-30T03:45:14.072Z,8
2018-06-30T03:45:39.656Z,8
2018-06-30T03:46:05.243Z,8
2018-06-30T03:46:30.808Z,8
2018-06-30T03:46:56.354Z,8
2018-06-30T03:47:21.918Z,8
2018-06-30T03:47:47.546Z,8
2018-06-30T03:48:13.112Z,8
2018-06-30T03:48:38.710Z,8
2018-06-30T03:49:04.280Z,8
2018-06-30T03:49:29.837Z,8
2018-06-30T03:49:55.398Z,8
2018-06-30T03:50:20.972Z,8
2018-06-30T03:50:46.526Z,8
2018-06-30T03:51:12.110Z,8
2018-06-30T03:51:37.714Z,4
2018-06-30T03:52:03.310Z,4
2018-06-30T03:52:28.859Z,8
2018-06-30T03:52:54.428Z,8
2018-06-30T03:53:20.029Z,8
2018-06-30T03:53:45.596Z,8
2018-06-30T03:54:11.139Z,8
2018-06-30T03:54:36.726Z,8
2018-06-30T03:55:02.299Z,8
2018-06-30T03:55:27.920Z,8
2018-06-30T03:55:53.519Z,8
2018-06-30T03:56:19.102Z,8
2018-06-30T03:56:44.655Z,8
2018-06-30T03:57:10.247Z,8
2018-06-30T03:57:35.821Z,8
2018-06-30T03:58:01.445Z,12
2018-06-30T03:58:27.013Z,12
2018-06-30T03:58:52.586Z,8
2018-06-30T03:59:18.144Z,8
2018-06-30T03:59:43.692Z,8
2018-06-30T04:00:09.237Z,8
2018-06-30T04:00:34.816Z,8
2018-06-30T04:01:00.394Z,8
2018-06-30T04:01:25.970Z,8
2018-06-30T04:01:51.521Z,8
2018-06-30T04:02:17.124Z,8
2018-06-30T04:02:42.715Z,8
2018-06-30T04:03:08.291Z,8
2018-06-30T04:03:33.834Z,8
2018-06-30T04:03:59.414Z,12
2018-06-30T04:04:24.997Z,12
2018-06-30T04:04:50.554Z,12
2018-06-30T04:05:16.138Z,12
2018-06-30T04:05:41.710Z,8
2018-06-30T04:06:07.279Z,8
2018-06-30T04:06:32.831Z,8
2018-06-30T04:06:58.415Z,8
2018-06-30T04:07:24.016Z,8
2018-06-30T04:07:49.582Z,8
2018-06-30T04:08:15.153Z,8
2018-06-30T04:08:40.712Z,8
2018-06-30T04:09:06.281Z,8
2018-06-30T04:09:31.845Z,8
2018-06-30T04:09:57.408Z,12
2018-06-30T04:10:22.976Z,12
2018-06-30T04:10:48.530Z,12
2018-06-30T04:11:14.083Z,12
2018-06-30T04:11:39.678Z,12
2018-06-30T04:12:05.253Z,12
2018-06-30T04:12:30.806Z,12
2018-06-30T04:12:56.396Z,12
2018-06-30T04:13:21.981Z,12
2018-06-30T04:13:47.535Z,12
2018-06-30T04:14:13.120Z,12
2018-06-30T04:14:38.676Z,12
2018-06-30T04:15:04.217Z,12
2018-06-30T04:15:29.795Z,12
2018-06-30T04:15:55.368Z,12
2018-06-30T04:16:20.936Z,12
2018-06-30T04:16:46.499Z,12
2018-06-30T04:17:12.074Z,12
2018-06-30T04:17:37.643Z,12
2018-06-30T04:18:03.220Z,12
2018-06-30T04:18:28.785Z,12
2018-06-30T04:18:54.372Z,12
2018-06-30T04:19:19.935Z,12
2018-06-30T04:19:45.501Z,12
2018-06-30T04:20:11.072Z,12
2018-06-30T04:20:36.634Z,12
2018-06-30T04:21:02.186Z,12
2018-06-30T04:21:27.787Z,12
2018-06-30T04:21:53.361Z,8
2018-06-30T04:22:18.905Z,8
2018-06-30T04:22:44.469Z,8
2018-06-30T04:23:10.021Z,8
2018-06-30T04:23:35.590Z,8
2018-06-30T04:24:01.148Z,8
2018-06-30T04:24:26.714Z,8
2018-06-30T04:24:52.283Z,8
2018-06-30T04:25:17.863Z,8
2018-06-30T04:25:43.425Z,8
2018-06-30T04:26:08.987Z,8
2018-06-30T04:26:34.569Z,8
2018-06-30T04:27:00.125Z,8
2018-06-30T04:27:25.738Z,8
2018-06-30T04:27:51.297Z,12
2018-06-30T04:28:16.887Z,12
2018-06-30T04:28:42.464Z,12
2018-06-30T04:29:08.041Z,12
2018-06-30T04:29:33.604Z,12
2018-06-30T04:29:59.192Z,12
2018-06-30T04:30:24.798Z,12
2018-06-30T04:30:50.372Z,12
2018-06-30T04:31:15.939Z,12
2018-06-30T04:31:41.492Z,12
2018-06-30T04:32:07.057Z,12
2018-06-30T04:32:32.642Z,12
2018-06-30T04:32:58.228Z,12
2018-06-30T04:33:23.796Z,12
2018-06-30T04:33:49.363Z,12
2018-06-30T04:34:14.940Z,12
2018-06-30T04:34:40.499Z,12
2018-06-30T04:35:06.072Z,12
2018-06-30T04:35:31.647Z,12
2018-06-30T04:35:57.217Z,12
2018-06-30T04:36:22.817Z,12
2018-06-30T04:36:48.380Z,12
2018-06-30T04:37:13.945Z,12
2018-06-30T04:37:39.514Z,12
2018-06-30T04:38:05.086Z,12
2018-06-30T04:38:30.659Z,12
2018-06-30T04:38:56.230Z,12
2018-06-30T04:39:21.787Z,12
2018-06-30T04:39:47.353Z,12
2018-06-30T04:40:12.943Z,12
2018-06-30T04:40:38.510Z,12
2018-06-30T04:41:04.096Z,12
2018-06-30T04:41:29.647Z,12
2018-06-30T04:41:55.202Z,16
2018-06-30T04:42:20.770Z,16
2018-06-30T04:42:46.359Z,16
2018-06-30T04:43:11.916Z,12
2018-06-30T04:43:37.471Z,12
2018-06-30T04:44:03.038Z,12
2018-06-30T04:44:28.622Z,12
2018-06-30T04:44:54.186Z,12
2018-06-30T04:45:19.818Z,12
2018-06-30T04:45:45.317Z,12
2018-06-30T04:46:10.899Z,12
2018-06-30T04:46:36.483Z,12
2018-06-30T04:47:02.037Z,12
2018-06-30T04:47:27.611Z,16
2018-06-30T04:47:53.170Z,16
2018-06-30T04:48:18.761Z,16
2018-06-30T04:48:44.339Z,16
2018-06-30T04:49:09.951Z,16
2018-06-30T04:49:35.581Z,16
2018-06-30T04:50:01.146Z,16
2018-06-30T04:50:26.708Z,12
2018-06-30T04:50:52.315Z,12
2018-06-30T04:51:17.885Z,12
2018-06-30T04:51:43.461Z,12
2018-06-30T04:52:09.036Z,12
2018-06-30T04:52:34.597Z,12
2018-06-30T04:53:00.166Z,12
2018-06-30T04:53:25.730Z,12
2018-06-30T04:53:51.278Z,12
2018-06-30T04:54:16.851Z,12
2018-06-30T04:54:42.425Z,12
2018-06-30T04:55:07.969Z,12
2018-06-30T04:55:33.579Z,12
2018-06-30T04:55:59.141Z,12
2018-06-30T04:56:24.689Z,12
2018-06-30T04:56:50.271Z,12
2018-06-30T04:57:15.843Z,12
2018-06-30T04:57:41.410Z,12
2018-06-30T04:58:06.952Z,12
2018-06-30T04:58:32.570Z,12
2018-06-30T04:58:58.152Z,16
2018-06-30T04:59:23.717Z,16
2018-06-30T04:59:49.280Z,16
2018-06-30T05:00:14.861Z,16
2018-06-30T05:00:40.427Z,16
2018-06-30T05:01:05.991Z,16
2018-06-30T05:01:31.549Z,16
2018-06-30T05:01:57.127Z,16
2018-06-30T05:02:22.694Z,16
2018-06-30T05:02:48.267Z,16
2018-06-30T05:03:13.831Z,16
2018-06-30T05:03:39.417Z,16
2018-06-30T05:04:04.987Z,16
2018-06-30T05:04:30.553Z,16
2018-06-30T05:04:56.122Z,16
2018-06-30T05:05:21.679Z,16
2018-06-30T05:05:47.243Z,12
2018-06-30T05:06:12.817Z,16
2018-06-30T05:06:38.373Z,12
2018-06-30T05:07:03.922Z,12
2018-06-30T05:07:29.489Z,12
2018-06-30T05:07:55.076Z,12
2018-06-30T05:08:20.617Z,16
2018-06-30T05:08:46.165Z,16
2018-06-30T05:09:11.761Z,16
2018-06-30T05:09:37.311Z,16
2018-06-30T05:10:02.873Z,16
2018-06-30T05:10:28.455Z,16
2018-06-30T05:10:54.023Z,16
2018-06-30T05:11:19.563Z,16
2018-06-30T05:11:45.158Z,16
2018-06-30T05:12:10.756Z,16
2018-06-30T05:12:36.332Z,16
2018-06-30T05:13:01.908Z,16
2018-06-30T05:13:27.463Z,16
2018-06-30T05:13:53.049Z,16
2018-06-30T05:14:18.635Z,16
2018-06-30T05:14:44.211Z,16
2018-06-30T05:15:09.777Z,16
2018-06-30T05:15:35.345Z,16
2018-06-30T05:16:00.919Z,16
2018-06-30T05:16:26.474Z,16
2018-06-30T05:16:52.047Z,20
2018-06-30T05:17:17.597Z,24
2018-06-30T05:17:43.169Z,24
2018-06-30T05:18:08.751Z,28
2018-06-30T05:18:34.347Z,28
2018-06-30T05:18:59.917Z,32
2018-06-30T05:19:25.488Z,32
2018-06-30T05:19:51.107Z,36
2018-06-30T05:20:16.675Z,36
2018-06-30T05:20:42.281Z,40
2018-06-30T05:21:07.847Z,44
2018-06-30T05:21:33.443Z,48
2018-06-30T05:21:58.989Z,48
2018-06-30T05:22:24.557Z,48
2018-06-30T05:22:50.102Z,52
2018-06-30T05:23:15.677Z,52
2018-06-30T05:23:41.251Z,60
2018-06-30T05:24:06.827Z,60
2018-06-30T05:24:32.405Z,64
2018-06-30T05:24:57.970Z,64
2018-06-30T05:25:23.523Z,68
2018-06-30T05:25:49.142Z,72
2018-06-30T05:26:14.679Z,72
2018-06-30T05:26:40.241Z,72
2018-06-30T05:27:05.820Z,76
2018-06-30T05:27:31.396Z,80
2018-06-30T05:27:56.962Z,80
2018-06-30T05:28:22.558Z,80
2018-06-30T05:28:48.119Z,80
2018-06-30T05:29:13.749Z,80
2018-06-30T05:29:39.311Z,80
2018-06-30T05:30:04.874Z,80
2018-06-30T05:30:30.437Z,80
2018-06-30T05:30:56.035Z,80
2018-06-30T05:31:21.599Z,80
2018-06-30T05:31:47.169Z,84
2018-06-30T05:32:12.782Z,84
2018-06-30T05:32:38.348Z,84
2018-06-30T05:33:03.923Z,84
2018-06-30T05:33:29.609Z,80
2018-06-30T05:33:55.099Z,80
2018-06-30T05:34:20.655Z,80
2018-06-30T05:34:46.251Z,80
2018-06-30T05:35:11.813Z,80
2018-06-30T05:35:37.383Z,80
2018-06-30T05:36:02.940Z,80
2018-06-30T05:36:28.523Z,80
2018-06-30T05:36:54.092Z,80
2018-06-30T05:37:19.655Z,80
2018-06-30T05:37:45.219Z,84
2018-06-30T05:38:10.799Z,84
2018-06-30T05:38:36.353Z,80
2018-06-30T05:39:01.955Z,80
2018-06-30T05:39:27.490Z,80
2018-06-30T05:39:53.085Z,80
2018-06-30T05:40:18.632Z,76
2018-06-30T05:40:44.197Z,80
2018-06-30T05:41:09.784Z,80
2018-06-30T05:41:35.333Z,80
2018-06-30T05:42:00.913Z,80
2018-06-30T05:42:26.485Z,80
2018-06-30T05:42:52.089Z,80
2018-06-30T05:43:17.665Z,80
2018-06-30T05:43:43.232Z,80
2018-06-30T05:44:08.800Z,80
2018-06-30T05:44:34.390Z,80
2018-06-30T05:44:59.951Z,80
2018-06-30T05:45:25.499Z,80
2018-06-30T05:45:51.060Z,80
2018-06-30T05:46:16.701Z,76
2018-06-30T05:46:42.272Z,80
2018-06-30T05:47:07.830Z,80
2018-06-30T05:47:33.381Z,80
2018-06-30T05:47:58.980Z,80
2018-06-30T05:48:24.532Z,80
2018-06-30T05:48:50.123Z,76
2018-06-30T05:49:15.700Z,76
2018-06-30T05:49:41.277Z,76
2018-06-30T05:50:06.853Z,76
2018-06-30T05:50:32.412Z,80
2018-06-30T05:50:57.987Z,80
2018-06-30T05:51:23.543Z,80
2018-06-30T05:51:49.120Z,76
2018-06-30T05:52:14.677Z,76
2018-06-30T05:52:40.233Z,76
2018-06-30T05:53:05.817Z,76
2018-06-30T05:53:31.390Z,76
2018-06-30T05:53:56.970Z,80
2018-06-30T05:54:22.532Z,76
2018-06-30T05:54:48.123Z,76
2018-06-30T05:55:13.692Z,76
2018-06-30T05:55:39.261Z,76
2018-06-30T05:56:04.838Z,76
2018-06-30T05:56:30.393Z,76
2018-06-30T05:56:55.973Z,76
2018-06-30T05:57:21.518Z,76
2018-06-30T05:57:47.105Z,76
2018-06-30T05:58:12.687Z,76
2018-06-30T05:58:38.236Z,76
2018-06-30T05:59:03.822Z,76
2018-06-30T05:59:29.457Z,140
2018-06-30T05:59:54.971Z,136
2018-06-30T06:00:20.556Z,136
2018-06-30T06:00:46.140Z,136
2018-06-30T06:01:11.717Z,136
2018-06-30T06:01:37.395Z,136
2018-06-30T06:02:02.995Z,136
2018-06-30T06:02:28.581Z,132
2018-06-30T06:02:54.135Z,136
2018-06-30T06:03:19.700Z,136
2018-06-30T06:03:45.269Z,132
2018-06-30T06:04:10.821Z,132
2018-06-30T06:04:36.413Z,132
2018-06-30T06:05:01.968Z,136
2018-06-30T06:05:27.546Z,132
2018-06-30T06:05:53.122Z,132
2018-06-30T06:06:18.682Z,132
2018-06-30T06:06:44.253Z,132
2018-06-30T06:07:09.822Z,132
2018-06-30T06:07:35.404Z,132
2018-06-30T06:08:00.976Z,132
2018-06-30T06:08:26.537Z,128
2018-06-30T06:08:52.128Z,132
2018-06-30T06:09:17.709Z,132
2018-06-30T06:09:43.432Z,128
2018-06-30T06:10:08.877Z,128
2018-06-30T06:10:34.462Z,132
2018-06-30T06:11:00.050Z,132
2018-06-30T06:11:25.616Z,128
2018-06-30T06:11:51.179Z,128
2018-06-30T06:12:16.757Z,128
2018-06-30T06:12:42.352Z,128
2018-06-30T06:13:07.895Z,128
2018-06-30T06:13:33.489Z,128
2018-06-30T06:13:59.056Z,128
2018-06-30T06:14:24.605Z,124